メインページ
METAR-TAF:

METAR-TAF

空港 :

ウェリントン国際空港

ウェリントン, ニュージーランド

緯度: 41-20S, 経度: 174-48E, 海抜: 12m

現時点の気象観測

当レポートは24分前の22:00(UTC)に作成
北/北東の風 8kt
気温 19°C
湿度 73%
気圧 1012 hPa
視程10km以上

METAR: NZWN 112200Z AUTO 02008KT 9999 FEW022/// BKN060/// OVC075/// 19/14 Q1012 NOSIG

時間: 11:24 (22:24 UTC)

予報

当レポートは5時間21分前の17:03(UTC)に作成
予報は11日の 18時(UTC)から 12日の 18時(UTC)まで有効
の風 8kt
視程10km以上
高度3000ftの雲はほとんどない
高度5000ftの千切れ雲あり
弱いにわか雨
11日の 18時(UTC)から 11日の 20時(UTC)まで一時的に
高度1200ftの千切れ雲あり
12日の 04時(UTC)から 12日の 06時(UTC)まで徐々に
南/南東の風 10kt
確率 40%
12日の 14時(UTC)から 12日の 18時(UTC)まで
高度800ftの千切れ雲あり

TAF: NZWN 111703Z 1118/1218 36008KT 9999 -SHRA FEW030 BKN050 TEMPO 1118/1120 BKN012 BECMG 1204/1206 16010KT PROB40 1214/1218 BKN008

4,000以上の空港の気象観測と天気予報(METAR報とTAF報)

利用可能な観測所は地図上に黄色い丸と赤い丸で示す。

丸の上にカーソルを重ねると観測所名を参照できる。

次にクリックすると気象観測と天気予報を参照できる。

マップの切り替え:黒色「×」印の緑ボタンをクリックして拡大、「-」印の緑ボタンをクリックして縮小、緑色の三角印をクリックして隣りの地図に切り替え


METAR-TAF: